sensor_id;sensor_type;location;lat;lon;timestamp;P1;durP1;ratioP1;P2;durP2;ratioP2
25535;SDS011;13431;51.352;6.412;2023-08-06T00:01:06;5.63;;;2.40;;
25535;SDS011;13431;51.352;6.412;2023-08-06T00:03:33;2.35;;;2.15;;
25535;SDS011;13431;51.352;6.412;2023-08-06T00:06:01;2.60;;;2.10;;
25535;SDS011;13431;51.352;6.412;2023-08-06T00:08:28;3.67;;;2.22;;
25535;SDS011;13431;51.352;6.412;2023-08-06T00:10:55;3.03;;;2.17;;
25535;SDS011;13431;51.352;6.412;2023-08-06T00:13:23;3.53;;;2.70;;
25535;SDS011;13431;51.352;6.412;2023-08-06T00:15:50;2.22;;;2.13;;
25535;SDS011;13431;51.352;6.412;2023-08-06T00:18:17;1.80;;;1.70;;
25535;SDS011;13431;51.352;6.412;2023-08-06T00:20:44;3.20;;;2.53;;
25535;SDS011;13431;51.352;6.412;2023-08-06T00:23:12;2.50;;;2.00;;
25535;SDS011;13431;51.352;6.412;2023-08-06T00:25:39;2.28;;;2.10;;
25535;SDS011;13431;51.352;6.412;2023-08-06T00:28:06;1.77;;;1.67;;
25535;SDS011;13431;51.352;6.412;2023-08-06T00:30:34;2.72;;;2.13;;
25535;SDS011;13431;51.352;6.412;2023-08-06T00:33:01;2.22;;;2.10;;
25535;SDS011;13431;51.352;6.412;2023-08-06T00:35:29;1.90;;;1.80;;
25535;SDS011;13431;51.352;6.412;2023-08-06T00:37:56;2.53;;;2.33;;
25535;SDS011;13431;51.352;6.412;2023-08-06T00:40:24;4.28;;;1.80;;
25535;SDS011;13431;51.352;6.412;2023-08-06T00:42:51;2.78;;;2.40;;
25535;SDS011;13431;51.352;6.412;2023-08-06T00:45:18;2.25;;;2.05;;
25535;SDS011;13431;51.352;6.412;2023-08-06T00:47:46;2.38;;;2.20;;
25535;SDS011;13431;51.352;6.412;2023-08-06T00:50:14;2.20;;;2.00;;
25535;SDS011;13431;51.352;6.412;2023-08-06T00:52:43;2.95;;;2.25;;
25535;SDS011;13431;51.352;6.412;2023-08-06T00:55:10;3.10;;;2.15;;
25535;SDS011;13431;51.352;6.412;2023-08-06T00:57:38;2.20;;;2.10;;
25535;SDS011;13431;51.352;6.412;2023-08-06T01:00:05;2.90;;;2.22;;
25535;SDS011;13431;51.352;6.412;2023-08-06T01:02:33;2.38;;;2.17;;
25535;SDS011;13431;51.352;6.412;2023-08-06T01:05:01;2.95;;;1.83;;
25535;SDS011;13431;51.352;6.412;2023-08-06T01:13:31;2.50;;;2.30;;
25535;SDS011;13431;51.352;6.412;2023-08-06T01:16:10;3.25;;;2.00;;
25535;SDS011;13431;51.352;6.412;2023-08-06T01:18:41;1.90;;;1.63;;
25535;SDS011;13431;51.352;6.412;2023-08-06T01:21:10;2.40;;;2.20;;
25535;SDS011;13431;51.352;6.412;2023-08-06T01:23:38;2.53;;;2.33;;
25535;SDS011;13431;51.352;6.412;2023-08-06T01:29:12;2.40;;;2.20;;
25535;SDS011;13431;51.352;6.412;2023-08-06T01:31:46;2.33;;;2.13;;
25535;SDS011;13431;51.352;6.412;2023-08-06T01:34:20;1.95;;;1.80;;
25535;SDS011;13431;51.352;6.412;2023-08-06T01:36:48;2.17;;;2.08;;
25535;SDS011;13431;51.352;6.412;2023-08-06T01:39:18;2.40;;;2.20;;
25535;SDS011;13431;51.352;6.412;2023-08-06T01:41:48;2.08;;;1.90;;
25535;SDS011;13431;51.352;6.412;2023-08-06T01:44:16;2.35;;;2.20;;
25535;SDS011;13431;51.352;6.412;2023-08-06T01:46:44;2.15;;;1.95;;
25535;SDS011;13431;51.352;6.412;2023-08-06T01:49:11;2.30;;;2.10;;
25535;SDS011;13431;51.352;6.412;2023-08-06T01:51:38;1.80;;;1.70;;
25535;SDS011;13431;51.352;6.412;2023-08-06T01:54:05;1.88;;;1.77;;
25535;SDS011;13431;51.352;6.412;2023-08-06T01:56:33;3.05;;;2.60;;
25535;SDS011;13431;51.352;6.412;2023-08-06T01:59:00;2.40;;;2.20;;
25535;SDS011;13431;51.352;6.412;2023-08-06T02:01:31;2.00;;;1.90;;
25535;SDS011;13431;51.352;6.412;2023-08-06T02:03:58;1.83;;;1.73;;
25535;SDS011;13431;51.352;6.412;2023-08-06T02:06:25;2.33;;;2.13;;
25535;SDS011;13431;51.352;6.412;2023-08-06T02:08:53;2.55;;;2.33;;
25535;SDS011;13431;51.352;6.412;2023-08-06T02:11:20;2.65;;;2.10;;
25535;SDS011;13431;51.352;6.412;2023-08-06T02:13:47;2.22;;;2.00;;
25535;SDS011;13431;51.352;6.412;2023-08-06T02:16:18;2.42;;;2.22;;
25535;SDS011;13431;51.352;6.412;2023-08-06T02:18:45;5.97;;;2.38;;
25535;SDS011;13431;51.352;6.412;2023-08-06T02:21:13;1.65;;;1.55;;
25535;SDS011;13431;51.352;6.412;2023-08-06T02:23:40;2.78;;;1.80;;
25535;SDS011;13431;51.352;6.412;2023-08-06T02:26:07;6.88;;;2.17;;
25535;SDS011;13431;51.352;6.412;2023-08-06T02:28:34;1.90;;;1.80;;
25535;SDS011;13431;51.352;6.412;2023-08-06T02:31:02;1.88;;;1.77;;
25535;SDS011;13431;51.352;6.412;2023-08-06T02:33:30;2.38;;;1.90;;
25535;SDS011;13431;51.352;6.412;2023-08-06T02:36:00;2.17;;;2.08;;
25535;SDS011;13431;51.352;6.412;2023-08-06T02:38:31;2.20;;;2.00;;
25535;SDS011;13431;51.352;6.412;2023-08-06T02:40:59;2.20;;;2.03;;
25535;SDS011;13431;51.352;6.412;2023-08-06T02:43:28;2.78;;;2.03;;
25535;SDS011;13431;51.352;6.412;2023-08-06T02:46:02;3.08;;;2.40;;
25535;SDS011;13431;51.352;6.412;2023-08-06T02:48:29;2.05;;;1.95;;
25535;SDS011;13431;51.352;6.412;2023-08-06T02:50:57;2.22;;;2.13;;
25535;SDS011;13431;51.352;6.412;2023-08-06T02:53:27;2.13;;;2.03;;
25535;SDS011;13431;51.352;6.412;2023-08-06T02:55:55;2.53;;;2.20;;
25535;SDS011;13431;51.352;6.412;2023-08-06T03:01:06;2.10;;;2.00;;
25535;SDS011;13431;51.352;6.412;2023-08-06T03:03:50;2.05;;;1.90;;
25535;SDS011;13431;51.352;6.412;2023-08-06T03:06:23;1.90;;;1.80;;
25535;SDS011;13431;51.352;6.412;2023-08-06T03:08:53;2.65;;;2.20;;
25535;SDS011;13431;51.352;6.412;2023-08-06T03:11:21;2.90;;;2.05;;
25535;SDS011;13431;51.352;6.412;2023-08-06T03:13:53;1.98;;;1.88;;
25535;SDS011;13431;51.352;6.412;2023-08-06T03:16:21;1.90;;;1.80;;
25535;SDS011;13431;51.352;6.412;2023-08-06T03:18:48;2.00;;;1.80;;
25535;SDS011;13431;51.352;6.412;2023-08-06T03:21:16;2.22;;;2.13;;
25535;SDS011;13431;51.352;6.412;2023-08-06T03:23:44;2.30;;;2.10;;
25535;SDS011;13431;51.352;6.412;2023-08-06T03:26:17;1.80;;;1.70;;
25535;SDS011;13431;51.352;6.412;2023-08-06T03:28:45;2.42;;;2.15;;
25535;SDS011;13431;51.352;6.412;2023-08-06T03:31:13;1.90;;;1.80;;
25535;SDS011;13431;51.352;6.412;2023-08-06T03:33:44;3.15;;;2.00;;
25535;SDS011;13431;51.352;6.412;2023-08-06T03:36:16;2.05;;;1.95;;
25535;SDS011;13431;51.352;6.412;2023-08-06T03:38:44;1.90;;;1.80;;
25535;SDS011;13431;51.352;6.412;2023-08-06T03:41:13;1.90;;;1.80;;
25535;SDS011;13431;51.352;6.412;2023-08-06T03:43:41;2.20;;;2.05;;
25535;SDS011;13431;51.352;6.412;2023-08-06T03:46:13;2.55;;;2.35;;
25535;SDS011;13431;51.352;6.412;2023-08-06T03:48:41;2.22;;;2.13;;
25535;SDS011;13431;51.352;6.412;2023-08-06T03:51:08;2.28;;;1.90;;
25535;SDS011;13431;51.352;6.412;2023-08-06T03:53:37;2.08;;;1.98;;
25535;SDS011;13431;51.352;6.412;2023-08-06T03:56:05;1.88;;;1.77;;
25535;SDS011;13431;51.352;6.412;2023-08-06T03:58:33;2.15;;;2.05;;
25535;SDS011;13431;51.352;6.412;2023-08-06T04:01:01;2.08;;;1.98;;
25535;SDS011;13431;51.352;6.412;2023-08-06T04:03:41;1.80;;;1.70;;
25535;SDS011;13431;51.352;6.412;2023-08-06T04:06:08;1.67;;;1.58;;
25535;SDS011;13431;51.352;6.412;2023-08-06T04:08:36;2.03;;;1.90;;
25535;SDS011;13431;51.352;6.412;2023-08-06T04:11:03;2.90;;;1.90;;
25535;SDS011;13431;51.352;6.412;2023-08-06T04:13:31;1.80;;;1.70;;
25535;SDS011;13431;51.352;6.412;2023-08-06T04:16:02;2.15;;;2.05;;
25535;SDS011;13431;51.352;6.412;2023-08-06T04:18:31;1.73;;;1.63;;
25535;SDS011;13431;51.352;6.412;2023-08-06T04:20:58;2.63;;;2.20;;
25535;SDS011;13431;51.352;6.412;2023-08-06T04:23:25;2.13;;;2.03;;
25535;SDS011;13431;51.352;6.412;2023-08-06T04:25:57;1.98;;;1.85;;
25535;SDS011;13431;51.352;6.412;2023-08-06T04:28:28;1.90;;;1.80;;
25535;SDS011;13431;51.352;6.412;2023-08-06T04:30:56;2.25;;;2.10;;
25535;SDS011;13431;51.352;6.412;2023-08-06T04:33:26;1.80;;;1.70;;
25535;SDS011;13431;51.352;6.412;2023-08-06T04:35:54;3.00;;;2.15;;
25535;SDS011;13431;51.352;6.412;2023-08-06T04:38:26;2.13;;;2.00;;
25535;SDS011;13431;51.352;6.412;2023-08-06T04:40:54;1.80;;;1.70;;
25535;SDS011;13431;51.352;6.412;2023-08-06T04:43:23;1.95;;;1.75;;
25535;SDS011;13431;51.352;6.412;2023-08-06T04:45:51;1.90;;;1.80;;
25535;SDS011;13431;51.352;6.412;2023-08-06T04:48:22;2.03;;;1.92;;
25535;SDS011;13431;51.352;6.412;2023-08-06T04:50:50;1.83;;;1.73;;
25535;SDS011;13431;51.352;6.412;2023-08-06T04:53:17;2.10;;;2.00;;
25535;SDS011;13431;51.352;6.412;2023-08-06T04:55:45;1.90;;;1.80;;
25535;SDS011;13431;51.352;6.412;2023-08-06T04:58:13;1.73;;;1.63;;
25535;SDS011;13431;51.352;6.412;2023-08-06T05:00:40;1.70;;;1.60;;
25535;SDS011;13431;51.352;6.412;2023-08-06T05:03:07;1.70;;;1.60;;
25535;SDS011;13431;51.352;6.412;2023-08-06T05:05:35;1.40;;;1.30;;
25535;SDS011;13431;51.352;6.412;2023-08-06T05:08:02;2.00;;;1.70;;
25535;SDS011;13431;51.352;6.412;2023-08-06T05:10:30;1.92;;;1.75;;
25535;SDS011;13431;51.352;6.412;2023-08-06T05:12:57;1.67;;;1.55;;
25535;SDS011;13431;51.352;6.412;2023-08-06T05:15:24;2.00;;;1.90;;
25535;SDS011;13431;51.352;6.412;2023-08-06T05:17:52;2.20;;;1.67;;
25535;SDS011;13431;51.352;6.412;2023-08-06T05:20:20;1.73;;;1.63;;
25535;SDS011;13431;51.352;6.412;2023-08-06T05:22:47;1.83;;;1.73;;
25535;SDS011;13431;51.352;6.412;2023-08-06T05:25:14;2.67;;;1.85;;
25535;SDS011;13431;51.352;6.412;2023-08-06T05:27:42;1.80;;;1.70;;
25535;SDS011;13431;51.352;6.412;2023-08-06T05:30:09;2.00;;;1.90;;
25535;SDS011;13431;51.352;6.412;2023-08-06T05:32:37;2.80;;;2.10;;
25535;SDS011;13431;51.352;6.412;2023-08-06T05:35:05;1.92;;;1.83;;
25535;SDS011;13431;51.352;6.412;2023-08-06T05:37:33;1.90;;;1.80;;
25535;SDS011;13431;51.352;6.412;2023-08-06T05:40:00;2.92;;;1.83;;
25535;SDS011;13431;51.352;6.412;2023-08-06T05:42:28;1.73;;;1.63;;
25535;SDS011;13431;51.352;6.412;2023-08-06T05:44:56;2.05;;;1.90;;
25535;SDS011;13431;51.352;6.412;2023-08-06T05:47:23;2.33;;;1.60;;
25535;SDS011;13431;51.352;6.412;2023-08-06T05:49:50;2.53;;;1.88;;
25535;SDS011;13431;51.352;6.412;2023-08-06T05:52:18;1.60;;;1.50;;
25535;SDS011;13431;51.352;6.412;2023-08-06T05:54:45;1.75;;;1.65;;
25535;SDS011;13431;51.352;6.412;2023-08-06T05:57:12;1.98;;;1.77;;
25535;SDS011;13431;51.352;6.412;2023-08-06T05:59:40;1.90;;;1.70;;
25535;SDS011;13431;51.352;6.412;2023-08-06T06:02:08;1.40;;;1.30;;
25535;SDS011;13431;51.352;6.412;2023-08-06T06:04:37;3.20;;;1.88;;
25535;SDS011;13431;51.352;6.412;2023-08-06T06:07:04;3.85;;;2.00;;
25535;SDS011;13431;51.352;6.412;2023-08-06T06:09:31;3.25;;;2.40;;
25535;SDS011;13431;51.352;6.412;2023-08-06T06:11:59;2.10;;;1.90;;
25535;SDS011;13431;51.352;6.412;2023-08-06T06:14:26;1.85;;;1.75;;
25535;SDS011;13431;51.352;6.412;2023-08-06T06:16:53;2.17;;;2.08;;
25535;SDS011;13431;51.352;6.412;2023-08-06T06:19:21;2.30;;;2.10;;
25535;SDS011;13431;51.352;6.412;2023-08-06T06:21:48;2.67;;;2.08;;
25535;SDS011;13431;51.352;6.412;2023-08-06T06:24:15;1.77;;;1.67;;
25535;SDS011;13431;51.352;6.412;2023-08-06T06:26:43;1.80;;;1.70;;
25535;SDS011;13431;51.352;6.412;2023-08-06T06:29:10;3.22;;;1.98;;
25535;SDS011;13431;51.352;6.412;2023-08-06T06:31:37;2.35;;;1.70;;
25535;SDS011;13431;51.352;6.412;2023-08-06T06:34:05;2.17;;;1.98;;
25535;SDS011;13431;51.352;6.412;2023-08-06T06:36:32;2.33;;;2.22;;
25535;SDS011;13431;51.352;6.412;2023-08-06T06:38:59;2.38;;;1.83;;
25535;SDS011;13431;51.352;6.412;2023-08-06T06:41:27;2.20;;;1.92;;
25535;SDS011;13431;51.352;6.412;2023-08-06T06:44:03;1.83;;;1.73;;
25535;SDS011;13431;51.352;6.412;2023-08-06T06:46:30;2.00;;;1.85;;
25535;SDS011;13431;51.352;6.412;2023-08-06T06:48:58;4.43;;;2.10;;
25535;SDS011;13431;51.352;6.412;2023-08-06T06:51:25;2.80;;;1.88;;
25535;SDS011;13431;51.352;6.412;2023-08-06T06:53:52;2.58;;;1.60;;
25535;SDS011;13431;51.352;6.412;2023-08-06T06:56:19;2.08;;;1.98;;
25535;SDS011;13431;51.352;6.412;2023-08-06T06:58:47;2.00;;;1.90;;
25535;SDS011;13431;51.352;6.412;2023-08-06T07:01:14;1.85;;;1.75;;
25535;SDS011;13431;51.352;6.412;2023-08-06T07:03:41;2.20;;;2.05;;
25535;SDS011;13431;51.352;6.412;2023-08-06T07:06:09;2.05;;;1.95;;
25535;SDS011;13431;51.352;6.412;2023-08-06T07:08:37;3.97;;;1.80;;
25535;SDS011;13431;51.352;6.412;2023-08-06T07:11:05;2.40;;;2.20;;
25535;SDS011;13431;51.352;6.412;2023-08-06T07:13:33;1.80;;;1.70;;
25535;SDS011;13431;51.352;6.412;2023-08-06T07:16:01;2.35;;;2.17;;
25535;SDS011;13431;51.352;6.412;2023-08-06T07:18:29;1.73;;;1.63;;
25535;SDS011;13431;51.352;6.412;2023-08-06T07:20:56;2.20;;;1.90;;
25535;SDS011;13431;51.352;6.412;2023-08-06T07:23:24;1.85;;;1.75;;
25535;SDS011;13431;51.352;6.412;2023-08-06T07:25:52;1.70;;;1.60;;
25535;SDS011;13431;51.352;6.412;2023-08-06T07:28:20;1.70;;;1.52;;
25535;SDS011;13431;51.352;6.412;2023-08-06T07:30:47;1.70;;;1.60;;
25535;SDS011;13431;51.352;6.412;2023-08-06T07:33:15;4.13;;;1.63;;
25535;SDS011;13431;51.352;6.412;2023-08-06T07:35:42;2.05;;;1.73;;
25535;SDS011;13431;51.352;6.412;2023-08-06T07:38:10;2.40;;;2.20;;
25535;SDS011;13431;51.352;6.412;2023-08-06T07:40:38;3.05;;;1.80;;
25535;SDS011;13431;51.352;6.412;2023-08-06T07:43:05;2.45;;;1.70;;
25535;SDS011;13431;51.352;6.412;2023-08-06T07:45:33;2.55;;;1.88;;
25535;SDS011;13431;51.352;6.412;2023-08-06T07:48:02;4.03;;;2.13;;
25535;SDS011;13431;51.352;6.412;2023-08-06T07:50:30;4.30;;;1.65;;
25535;SDS011;13431;51.352;6.412;2023-08-06T07:52:58;1.85;;;1.70;;
25535;SDS011;13431;51.352;6.412;2023-08-06T07:55:25;1.83;;;1.73;;
25535;SDS011;13431;51.352;6.412;2023-08-06T07:57:53;2.70;;;2.00;;
25535;SDS011;13431;51.352;6.412;2023-08-06T08:00:21;2.83;;;1.88;;
25535;SDS011;13431;51.352;6.412;2023-08-06T08:02:48;1.98;;;1.88;;
25535;SDS011;13431;51.352;6.412;2023-08-06T08:05:16;2.10;;;1.95;;
25535;SDS011;13431;51.352;6.412;2023-08-06T08:07:43;2.00;;;1.70;;
25535;SDS011;13431;51.352;6.412;2023-08-06T08:10:11;2.90;;;1.70;;
25535;SDS011;13431;51.352;6.412;2023-08-06T08:12:38;2.17;;;1.98;;
25535;SDS011;13431;51.352;6.412;2023-08-06T08:15:06;1.88;;;1.73;;
25535;SDS011;13431;51.352;6.412;2023-08-06T08:17:33;1.95;;;1.80;;
25535;SDS011;13431;51.352;6.412;2023-08-06T08:20:01;2.28;;;2.08;;
25535;SDS011;13431;51.352;6.412;2023-08-06T08:22:29;3.92;;;1.83;;
25535;SDS011;13431;51.352;6.412;2023-08-06T08:24:57;1.77;;;1.60;;
25535;SDS011;13431;51.352;6.412;2023-08-06T08:27:24;3.08;;;1.88;;
25535;SDS011;13431;51.352;6.412;2023-08-06T08:29:52;2.08;;;1.80;;
25535;SDS011;13431;51.352;6.412;2023-08-06T08:32:20;2.17;;;1.60;;
25535;SDS011;13431;51.352;6.412;2023-08-06T08:34:47;2.00;;;1.70;;
25535;SDS011;13431;51.352;6.412;2023-08-06T08:37:14;1.98;;;1.30;;
25535;SDS011;13431;51.352;6.412;2023-08-06T08:39:42;2.40;;;1.50;;
25535;SDS011;13431;51.352;6.412;2023-08-06T08:42:09;3.97;;;1.70;;
25535;SDS011;13431;51.352;6.412;2023-08-06T08:44:37;1.90;;;1.75;;
25535;SDS011;13431;51.352;6.412;2023-08-06T08:47:06;2.55;;;1.85;;
25535;SDS011;13431;51.352;6.412;2023-08-06T08:49:36;2.67;;;1.70;;
25535;SDS011;13431;51.352;6.412;2023-08-06T08:52:04;2.13;;;1.70;;
25535;SDS011;13431;51.352;6.412;2023-08-06T08:54:33;2.42;;;1.85;;
25535;SDS011;13431;51.352;6.412;2023-08-06T08:57:01;1.75;;;1.52;;
25535;SDS011;13431;51.352;6.412;2023-08-06T08:59:29;1.60;;;1.50;;
25535;SDS011;13431;51.352;6.412;2023-08-06T09:01:56;2.22;;;1.45;;
25535;SDS011;13431;51.352;6.412;2023-08-06T09:04:25;1.83;;;1.73;;
25535;SDS011;13431;51.352;6.412;2023-08-06T09:07:00;2.22;;;1.50;;
25535;SDS011;13431;51.352;6.412;2023-08-06T09:09:30;4.57;;;1.80;;
25535;SDS011;13431;51.352;6.412;2023-08-06T09:12:01;2.60;;;1.75;;
25535;SDS011;13431;51.352;6.412;2023-08-06T09:14:32;2.33;;;1.92;;
25535;SDS011;13431;51.352;6.412;2023-08-06T09:17:00;2.45;;;1.75;;
25535;SDS011;13431;51.352;6.412;2023-08-06T09:19:28;3.10;;;1.58;;
25535;SDS011;13431;51.352;6.412;2023-08-06T09:21:55;3.65;;;2.42;;
25535;SDS011;13431;51.352;6.412;2023-08-06T09:24:23;1.73;;;1.60;;
25535;SDS011;13431;51.352;6.412;2023-08-06T09:26:52;2.17;;;1.60;;
25535;SDS011;13431;51.352;6.412;2023-08-06T09:29:21;2.45;;;1.40;;
25535;SDS011;13431;51.352;6.412;2023-08-06T09:31:49;1.75;;;1.65;;
25535;SDS011;13431;51.352;6.412;2023-08-06T09:34:20;2.05;;;1.60;;
25535;SDS011;13431;51.352;6.412;2023-08-06T09:36:49;2.53;;;1.80;;
25535;SDS011;13431;51.352;6.412;2023-08-06T09:39:30;2.47;;;1.70;;
25535;SDS011;13431;51.352;6.412;2023-08-06T09:42:01;3.95;;;1.52;;
25535;SDS011;13431;51.352;6.412;2023-08-06T09:44:30;3.90;;;1.98;;
25535;SDS011;13431;51.352;6.412;2023-08-06T09:46:59;5.38;;;1.90;;
25535;SDS011;13431;51.352;6.412;2023-08-06T09:52:10;3.72;;;1.50;;
25535;SDS011;13431;51.352;6.412;2023-08-06T09:54:39;3.50;;;1.50;;
25535;SDS011;13431;51.352;6.412;2023-08-06T09:57:06;3.45;;;1.60;;
25535;SDS011;13431;51.352;6.412;2023-08-06T09:59:37;2.65;;;1.90;;
25535;SDS011;13431;51.352;6.412;2023-08-06T10:02:07;3.03;;;1.80;;
25535;SDS011;13431;51.352;6.412;2023-08-06T10:04:40;2.22;;;1.83;;
25535;SDS011;13431;51.352;6.412;2023-08-06T10:07:11;1.75;;;1.58;;
25535;SDS011;13431;51.352;6.412;2023-08-06T10:09:39;5.20;;;1.50;;
25535;SDS011;13431;51.352;6.412;2023-08-06T10:12:06;1.58;;;1.48;;
25535;SDS011;13431;51.352;6.412;2023-08-06T10:14:35;3.17;;;1.48;;
25535;SDS011;13431;51.352;6.412;2023-08-06T10:17:04;2.15;;;1.58;;
25535;SDS011;13431;51.352;6.412;2023-08-06T10:19:32;1.58;;;1.35;;
25535;SDS011;13431;51.352;6.412;2023-08-06T10:27:22;2.08;;;1.88;;
25535;SDS011;13431;51.352;6.412;2023-08-06T10:29:54;3.05;;;1.95;;
25535;SDS011;13431;51.352;6.412;2023-08-06T10:32:46;2.03;;;1.80;;
25535;SDS011;13431;51.352;6.412;2023-08-06T10:35:38;1.95;;;1.50;;
25535;SDS011;13431;51.352;6.412;2023-08-06T10:40:40;1.60;;;1.50;;
25535;SDS011;13431;51.352;6.412;2023-08-06T10:43:29;2.75;;;1.70;;
25535;SDS011;13431;51.352;6.412;2023-08-06T10:46:10;2.78;;;1.40;;
25535;SDS011;13431;51.352;6.412;2023-08-06T10:48:41;1.80;;;1.67;;
25535;SDS011;13431;51.352;6.412;2023-08-06T10:51:12;1.92;;;1.58;;
25535;SDS011;13431;51.352;6.412;2023-08-06T10:53:42;1.65;;;1.55;;
25535;SDS011;13431;51.352;6.412;2023-08-06T10:56:14;1.90;;;1.52;;
25535;SDS011;13431;51.352;6.412;2023-08-06T10:58:43;5.15;;;1.73;;
25535;SDS011;13431;51.352;6.412;2023-08-06T11:01:11;1.75;;;1.63;;
25535;SDS011;13431;51.352;6.412;2023-08-06T11:03:39;6.00;;;1.38;;
25535;SDS011;13431;51.352;6.412;2023-08-06T11:06:07;2.08;;;1.48;;
25535;SDS011;13431;51.352;6.412;2023-08-06T11:08:35;1.60;;;1.50;;
25535;SDS011;13431;51.352;6.412;2023-08-06T11:11:07;4.10;;;1.90;;
25535;SDS011;13431;51.352;6.412;2023-08-06T11:13:44;1.42;;;1.33;;
25535;SDS011;13431;51.352;6.412;2023-08-06T11:16:17;1.55;;;1.40;;
25535;SDS011;13431;51.352;6.412;2023-08-06T11:18:50;3.50;;;1.40;;
25535;SDS011;13431;51.352;6.412;2023-08-06T11:21:21;3.78;;;1.73;;
25535;SDS011;13431;51.352;6.412;2023-08-06T11:23:48;1.67;;;1.13;;
25535;SDS011;13431;51.352;6.412;2023-08-06T11:26:22;2.33;;;1.33;;
25535;SDS011;13431;51.352;6.412;2023-08-06T11:28:50;3.72;;;1.65;;
25535;SDS011;13431;51.352;6.412;2023-08-06T11:31:19;5.60;;;2.05;;
25535;SDS011;13431;51.352;6.412;2023-08-06T11:33:48;1.40;;;1.30;;
25535;SDS011;13431;51.352;6.412;2023-08-06T11:36:27;2.55;;;1.30;;
25535;SDS011;13431;51.352;6.412;2023-08-06T11:39:00;2.30;;;1.73;;
25535;SDS011;13431;51.352;6.412;2023-08-06T11:41:28;2.05;;;1.33;;
25535;SDS011;13431;51.352;6.412;2023-08-06T11:43:56;1.70;;;1.60;;
25535;SDS011;13431;51.352;6.412;2023-08-06T11:46:24;1.25;;;1.20;;
25535;SDS011;13431;51.352;6.412;2023-08-06T11:48:52;2.80;;;1.30;;
25535;SDS011;13431;51.352;6.412;2023-08-06T11:51:24;2.25;;;1.30;;
25535;SDS011;13431;51.352;6.412;2023-08-06T11:53:55;1.42;;;1.33;;
25535;SDS011;13431;51.352;6.412;2023-08-06T11:56:24;1.48;;;1.30;;
25535;SDS011;13431;51.352;6.412;2023-08-06T11:58:54;4.20;;;1.40;;
25535;SDS011;13431;51.352;6.412;2023-08-06T12:01:21;1.63;;;1.20;;
25535;SDS011;13431;51.352;6.412;2023-08-06T12:03:49;3.22;;;1.50;;
25535;SDS011;13431;51.352;6.412;2023-08-06T12:06:17;1.27;;;1.10;;
25535;SDS011;13431;51.352;6.412;2023-08-06T12:08:44;1.48;;;1.38;;
25535;SDS011;13431;51.352;6.412;2023-08-06T12:11:11;1.20;;;1.10;;
25535;SDS011;13431;51.352;6.412;2023-08-06T12:13:39;1.25;;;1.15;;
25535;SDS011;13431;51.352;6.412;2023-08-06T12:16:06;1.40;;;1.30;;
25535;SDS011;13431;51.352;6.412;2023-08-06T12:18:33;1.85;;;1.50;;
25535;SDS011;13431;51.352;6.412;2023-08-06T12:21:01;1.67;;;1.25;;
25535;SDS011;13431;51.352;6.412;2023-08-06T12:23:28;3.70;;;1.30;;
25535;SDS011;13431;51.352;6.412;2023-08-06T12:25:55;1.30;;;1.20;;
25535;SDS011;13431;51.352;6.412;2023-08-06T12:28:23;2.00;;;1.20;;
25535;SDS011;13431;51.352;6.412;2023-08-06T12:30:50;1.50;;;1.35;;
25535;SDS011;13431;51.352;6.412;2023-08-06T12:33:21;1.10;;;1.10;;
25535;SDS011;13431;51.352;6.412;2023-08-06T12:35:48;1.55;;;1.17;;
25535;SDS011;13431;51.352;6.412;2023-08-06T12:38:16;1.42;;;1.33;;
25535;SDS011;13431;51.352;6.412;2023-08-06T12:40:43;1.98;;;1.20;;
25535;SDS011;13431;51.352;6.412;2023-08-06T12:43:11;1.20;;;1.10;;
25535;SDS011;13431;51.352;6.412;2023-08-06T12:45:38;2.60;;;1.25;;
25535;SDS011;13431;51.352;6.412;2023-08-06T12:48:06;3.70;;;1.00;;
25535;SDS011;13431;51.352;6.412;2023-08-06T12:50:33;1.65;;;1.20;;
25535;SDS011;13431;51.352;6.412;2023-08-06T12:53:01;1.33;;;1.23;;
25535;SDS011;13431;51.352;6.412;2023-08-06T12:55:29;1.83;;;0.95;;
25535;SDS011;13431;51.352;6.412;2023-08-06T12:57:59;1.50;;;1.40;;
25535;SDS011;13431;51.352;6.412;2023-08-06T13:00:26;1.20;;;1.10;;
25535;SDS011;13431;51.352;6.412;2023-08-06T13:02:54;1.38;;;1.27;;
25535;SDS011;13431;51.352;6.412;2023-08-06T13:05:21;1.55;;;1.10;;
25535;SDS011;13431;51.352;6.412;2023-08-06T13:07:49;1.20;;;1.20;;
25535;SDS011;13431;51.352;6.412;2023-08-06T13:10:16;1.95;;;1.20;;
25535;SDS011;13431;51.352;6.412;2023-08-06T13:12:44;1.40;;;1.30;;
25535;SDS011;13431;51.352;6.412;2023-08-06T13:15:12;1.88;;;1.10;;
25535;SDS011;13431;51.352;6.412;2023-08-06T13:17:41;1.45;;;1.35;;
25535;SDS011;13431;51.352;6.412;2023-08-06T13:20:09;1.20;;;1.10;;
25535;SDS011;13431;51.352;6.412;2023-08-06T13:22:37;2.33;;;1.27;;
25535;SDS011;13431;51.352;6.412;2023-08-06T13:25:04;1.27;;;1.10;;
25535;SDS011;13431;51.352;6.412;2023-08-06T13:27:32;1.67;;;1.30;;
25535;SDS011;13431;51.352;6.412;2023-08-06T13:29:59;1.45;;;1.30;;
25535;SDS011;13431;51.352;6.412;2023-08-06T13:32:26;1.40;;;1.33;;
25535;SDS011;13431;51.352;6.412;2023-08-06T13:34:54;1.38;;;1.27;;
25535;SDS011;13431;51.352;6.412;2023-08-06T13:37:21;1.30;;;1.20;;
25535;SDS011;13431;51.352;6.412;2023-08-06T13:39:48;1.50;;;1.40;;
25535;SDS011;13431;51.352;6.412;2023-08-06T13:42:16;1.60;;;1.40;;
25535;SDS011;13431;51.352;6.412;2023-08-06T13:44:43;1.10;;;1.10;;
25535;SDS011;13431;51.352;6.412;2023-08-06T13:47:10;1.50;;;1.40;;
25535;SDS011;13431;51.352;6.412;2023-08-06T13:49:38;1.30;;;1.20;;
25535;SDS011;13431;51.352;6.412;2023-08-06T13:52:05;1.30;;;1.20;;
25535;SDS011;13431;51.352;6.412;2023-08-06T13:54:47;1.27;;;1.17;;
25535;SDS011;13431;51.352;6.412;2023-08-06T13:57:15;1.30;;;1.30;;
25535;SDS011;13431;51.352;6.412;2023-08-06T13:59:44;1.40;;;1.30;;
25535;SDS011;13431;51.352;6.412;2023-08-06T14:02:11;1.30;;;1.20;;
25535;SDS011;13431;51.352;6.412;2023-08-06T14:04:39;2.58;;;1.63;;
25535;SDS011;13431;51.352;6.412;2023-08-06T14:07:07;1.10;;;1.10;;
25535;SDS011;13431;51.352;6.412;2023-08-06T14:09:34;1.33;;;1.23;;
25535;SDS011;13431;51.352;6.412;2023-08-06T14:12:02;1.10;;;1.00;;
25535;SDS011;13431;51.352;6.412;2023-08-06T14:14:30;1.85;;;1.30;;
25535;SDS011;13431;51.352;6.412;2023-08-06T14:16:57;1.40;;;1.30;;
25535;SDS011;13431;51.352;6.412;2023-08-06T14:19:25;1.20;;;1.10;;
25535;SDS011;13431;51.352;6.412;2023-08-06T14:21:52;1.35;;;1.25;;
25535;SDS011;13431;51.352;6.412;2023-08-06T14:24:20;0.88;;;0.88;;
25535;SDS011;13431;51.352;6.412;2023-08-06T14:26:47;1.80;;;1.33;;
25535;SDS011;13431;51.352;6.412;2023-08-06T14:29:15;1.88;;;1.70;;
25535;SDS011;13431;51.352;6.412;2023-08-06T14:31:42;1.23;;;1.13;;
25535;SDS011;13431;51.352;6.412;2023-08-06T14:34:10;1.10;;;1.10;;
25535;SDS011;13431;51.352;6.412;2023-08-06T14:36:37;1.10;;;1.10;;
25535;SDS011;13431;51.352;6.412;2023-08-06T14:39:05;1.30;;;1.20;;
25535;SDS011;13431;51.352;6.412;2023-08-06T14:41:32;1.30;;;1.05;;
25535;SDS011;13431;51.352;6.412;2023-08-06T14:43:59;1.40;;;1.30;;
25535;SDS011;13431;51.352;6.412;2023-08-06T14:46:27;1.33;;;1.23;;
25535;SDS011;13431;51.352;6.412;2023-08-06T14:48:54;1.10;;;1.10;;
25535;SDS011;13431;51.352;6.412;2023-08-06T14:51:22;1.40;;;1.30;;
25535;SDS011;13431;51.352;6.412;2023-08-06T14:53:50;1.80;;;1.30;;
25535;SDS011;13431;51.352;6.412;2023-08-06T14:56:17;1.42;;;1.20;;
25535;SDS011;13431;51.352;6.412;2023-08-06T14:58:44;1.15;;;1.10;;
25535;SDS011;13431;51.352;6.412;2023-08-06T15:01:12;1.30;;;1.20;;
25535;SDS011;13431;51.352;6.412;2023-08-06T15:03:39;1.52;;;1.42;;
25535;SDS011;13431;51.352;6.412;2023-08-06T15:06:07;1.23;;;1.17;;
25535;SDS011;13431;51.352;6.412;2023-08-06T15:08:34;2.38;;;1.23;;
25535;SDS011;13431;51.352;6.412;2023-08-06T15:11:02;5.15;;;1.20;;
25535;SDS011;13431;51.352;6.412;2023-08-06T15:13:30;1.27;;;1.20;;
25535;SDS011;13431;51.352;6.412;2023-08-06T15:15:57;1.33;;;1.20;;
25535;SDS011;13431;51.352;6.412;2023-08-06T15:18:24;1.33;;;1.23;;